Tiempo atmosférico en la estación meteorológica de Silleda, Pontevedra (422 m.)



Fecha
DESCASC
Temp. máxima en grados centígrados (hora)
DESCASC
Temp. mínima en grados centígrados (hora)
DESCASC
Temp. media en grados centígrados
DESCASC
Racha de viento máxima en m/sg (hora)
DESCASC
Velocidad máxima media en intervalos de 10 minutos(hora)
DESCASC
Precipitaciones diarias en mm
DESCASC
Precipitaciones de 00:00 a 06:00 en mm
DESCASC
Precipitaciones de 06:00 a 12:00 en mm
DESCASC
Precipitaciones de 12:00 a 18:00 en mm
DESCASC
Precipitaciones de 18:00 a 24:00 en mm
DESCASC
22-10-2019 18 (15:50) 4.5 (05:40) 11.3 6.94 (17:20) 2.78 (04:20) 0 0 0 0 0
27-10-2019 18.7 (13:30) 12.6 (00:00) 15.7 7.22 (13:10) 4.72 (06:50) 0 0 0 0 0
25-10-2019 21.1 (18:00) 11.2 (00:00) 16.2 9.17 (14:00) 5 (13:40) 0 0 0 0 0
26-10-2019 22.7 (15:40) 11 (00:00) 16.9 8.61 (12:20) 4.72 (15:00) 0 0 0 0 0
21-10-2019 15.4 (16:40) 6 (00:00) 10.7 5.28 (17:10) 3.33 (17:00) 0.2 0.2 0 0 0
23-10-2019 16 (15:30) 7.3 (00:00) 11.7 7.22 (14:30) 3.33 (14:20) 0.4 0.4 0 0 0
29-10-2019 18.9 (12:30) 13.7 (00:00) 16.3 7.5 (12:50) 3.06 (05:30) 1 0.4 0.4 0.2 0
11-11-2019 13.1 (15:50) 7.1 (23:30) 10.1 7.5 (09:30) 3.61 (07:50) 1.4 0.8 0.6 0 0
16-11-2019 10.1 (11:00) 2.7 (00:00) 6.4 6.11 (14:10) 2.78 (14:00) 1.6 1.6 0 0 0
31-10-2019 19.1 (15:30) 14.4 (08:00) 16.8 6.67 (15:00) 3.06 (15:00) 1.8 0 0 0 1.8
28-10-2019 21.7 (11:20) 13.3 (00:00) 17.5 9.44 (12:10) 4.72 (07:20) 2.2 0 0 0 2.2
30-10-2019 19.2 (15:20) 14.8 (00:00) 17 6.67 (06:10) 3.89 (06:10) 3.2 0.8 1 1.4 0
24-10-2019 15.7 (15:30) 8.5 (00:00) 12.1 8.06 (14:10) 3.06 (08:20) 3.4 0 1.4 2 0
06-11-2019 12.8 (16:50) 8.2 (00:00) 10.5 7.78 (21:50) 4.44 (23:10) 5.6 1 0.6 0.2 3.8
09-11-2019 12.2 (12:50) 6.9 (00:00) 9.5 8.06 (08:30) 3.89 (20:20) 6 0.4 4.4 0.2 1
20-10-2019 12.9 (11:00) 7.5 (00:00) 10.2 4.72 (15:40) 2.5 (13:10) 7.8 0.6 1.6 5.2 0.4
18-10-2019 17.2 (16:30) 10.6 (00:00) 13.9 8.06 (20:10) 3.61 (20:00) 8.2 0 0.2 0 8
05-11-2019 13.7 (15:30) 7.9 (00:00) 10.8 9.72 (14:30) 4.44 (15:50) 9.6 0.6 6.8 1.6 0.6
13-11-2019 13.6 (01:30) 7.4 (00:00) 10.5 12.22 (22:20) 5 (23:10) 10 2.6 0 0 7.4
07-11-2019 10.1 (12:50) 4.1 (00:00) 7.1 12.5 (13:20) 5.28 (11:00) 11 0.8 3.8 3.6 2.8
08-11-2019 11.8 (15:50) 3.5 (04:20) 7.7 10 (00:30) 3.89 (13:30) 11.8 9 2.4 0.4 0
10-11-2019 7.8 (14:00) 6 (00:00) 6.9 6.39 (11:10) 3.06 (19:50) 12.2 1.4 3.2 4.8 2.8
02-11-2019 14.9 (00:00) 10.6 (00:00) 12.8 16.67 (20:30) 5.28 (20:30) 12.8 5.2 2.4 0.8 4.4
15-11-2019 6.9 (13:40) 2.4 (00:00) 4.7 7.22 (14:20) 3.06 (11:30) 15.2 3 2 3.8 6.4
03-11-2019 13.9 (19:50) 8.3 (00:00) 11.1 16.39 (01:40) 8.33 (01:40) 15.8 8 0.6 1.6 5.6
04-11-2019 13 (05:10) 7.6 (00:00) 10.3 16.94 (07:00) 7.22 (05:50) 16.8 7 4.2 0.8 4.8
14-11-2019 7.5 (13:00) 3.2 (00:00) 5.4 18.89 (11:50) 7.22 (13:00) 18.8 4.4 7.2 6.4 0.8
12-11-2019 13.5 (23:50) 6.8 (00:00) 10.2 10.56 (16:10) 4.72 (16:10) 29.8 0.2 1 10.6 18
01-11-2019 17.1 (11:50) 14.9 (00:00) 16 12.78 (15:30) 4.72 (19:10) 33.6 1.2 15.2 8.4 8.8
19-10-2019 12.4 (16:00) 8.6 (00:00) 10.5 6.11 (14:00) 3.33 (14:00) 38.8 11.8 14.2 6 6.8

Gráficas

Temp. máximas Temp. mínimas Temp. medias Precipitaciones Rachas de viento máximas Velocidades máximas media en intervalos de 10 minutos

Datos horarios

Fecha y hora oficial Temperatura (ºC) Velocidad del viento (km/h) Dirección del viento Racha (km/h) Dirección de racha Precipitación (mm) Presión (hPa) Tendencia (hPa) Humedad (%)
2019-11-16 23:00:00 7.7 7 Sudoeste 18 Oeste 0 -- -- 91
2019-11-16 22:00:00 7.4 3 Sur 19 Sur 0 -- -- 90
2019-11-16 21:00:00 7.1 6 Oeste 21 Oeste 0 -- -- 91
2019-11-16 20:00:00 7 5 Sudoeste 22 Oeste 0 -- -- 89
2019-11-16 19:00:00 7.1 4 Sudoeste 16 Sur 0 -- -- 89
2019-11-16 18:00:00 7.1 6 Sudoeste 18 Sudoeste 0 -- -- 88
2019-11-16 17:00:00 7.4 7 Sudoeste 19 Sudoeste 0 -- -- 86
2019-11-16 16:00:00 8.5 4 Oeste 22 Oeste 0 -- -- 81
2019-11-16 15:00:00 7.8 6 Oeste 22 Noroeste 0 -- -- 81
2019-11-16 14:00:00 9 10 Noroeste 22 Oeste 0 -- -- 71
2019-11-16 13:00:00 8.5 4 Noroeste 11 Oeste 0 -- -- 85
2019-11-16 12:00:00 5.9 3 Noroeste 15 Noroeste 0 -- -- 93
2019-11-16 11:00:00 10.1 4 Oeste 8 Sudoeste 0 -- -- 81
2019-11-16 10:00:00 4.9 2 Oeste 7 Este 0 -- -- 99
2019-11-16 09:00:00 2.9 5 Este 8 Nordeste 0 -- -- 100
2019-11-16 08:00:00 3.3 0 Calma 4 Nordeste 0 -- -- 100
2019-11-16 07:00:00 3.6 0 Calma 4 Noroeste 0 -- -- 100
2019-11-16 06:00:00 3.9 0 Calma 3 Noroeste 0 -- -- 100
2019-11-16 05:00:00 3.4 0 Calma 2 Noroeste 0 -- -- 100
2019-11-16 04:00:00 3.2 2 Noroeste 5 Noroeste 0 -- -- 100
2019-11-16 03:00:00 3.2 0 Calma 3 Norte 0.4 -- -- 100
2019-11-16 02:00:00 3.2 0 Calma 5 Norte 0.2 -- -- 100
2019-11-16 01:00:00 3.3 0 Calma 4 Noroeste 1 -- -- 100
2019-11-16 00:00:00 2.7 3 Noroeste 6 Norte 0 -- -- 100
2019-11-15 23:00:00 3 0 Calma 5 Oeste 1.2 -- -- 99
2019-11-15 22:00:00 2.9 0 Calma 7 Nordeste 1 -- -- 99
2019-11-15 21:00:00 2.9 4 Norte 17 Noroeste 2.6 -- -- 98
2019-11-15 20:00:00 3.7 3 Noroeste 13 Noroeste 0.2 -- -- 99
2019-11-15 19:00:00 3.7 0 Calma 22 Nordeste 1.4 -- -- 99
2019-11-15 18:00:00 3.7 0 Calma 12 Noroeste 0.4 -- -- 99
2019-11-15 17:00:00 3.9 4 Noroeste 24 Noroeste 0.6 -- -- 99
2019-11-15 16:00:00 5 9 Noroeste 19 Noroeste 0.4 -- -- 97
2019-11-15 15:00:00 4.8 5 Noroeste 26 Noroeste 1.4 -- -- 96
2019-11-15 14:00:00 6.1 6 Noroeste 15 Noroeste 0 -- -- 91
2019-11-15 13:00:00 6.3 3 Noroeste 19 Noroeste 1 -- -- 92
2019-11-15 12:00:00 6.4 7 Noroeste 17 Noroeste 0 -- -- 86
2019-11-15 11:00:00 5.8 3 Noroeste 9 Oeste 0 -- -- 93
2019-11-15 10:00:00 3.9 0 Calma 16 Noroeste 0.6 -- -- 98
2019-11-15 09:00:00 2.5 0 Calma 18 Noroeste 0.2 -- -- 99
2019-11-15 08:00:00 2.7 3 Noroeste 9 Norte 1 -- -- 100
2019-11-15 07:00:00 2.5 2 Noroeste 17 Norte 0.2 -- -- 100
2019-11-15 06:00:00 2.4 3 Noroeste 6 Noroeste 0 -- -- 100
2019-11-15 05:00:00 3 2 Oeste 10 Noroeste 0.4 -- -- 98
2019-11-15 04:00:00 3.4 4 Noroeste 22 Noroeste 0.6 -- -- 98
2019-11-15 03:00:00 3.3 0 Calma 15 Noroeste 0.4 -- -- 97
2019-11-15 02:00:00 3.4 2 Noroeste 21 Nordeste 1.4 -- -- 96
2019-11-15 01:00:00 3.5 3 Noroeste 19 Noroeste 0.2 -- -- 94
2019-11-15 00:00:00 3.8 6 Noroeste 27 Noroeste 0 -- -- 90
2019-11-14 23:00:00 3.7 5 Noroeste 26 Noroeste 0.4 -- -- 94
2019-11-14 22:00:00 3.8 4 Noroeste 24 Noroeste 0.2 -- -- 92
2019-11-14 21:00:00 4.3 8 Noroeste 18 Noroeste 0 -- -- 90
2019-11-14 20:00:00 4.9 9 Noroeste 32 Noroeste 0 -- -- 92
2019-11-14 19:00:00 5.6 11 Noroeste 27 Noroeste 0.2 -- -- 94
2019-11-14 18:00:00 5.9 15 Noroeste 38 Noroeste 0.6 -- -- 96
2019-11-14 17:00:00 5.5 11 Noroeste 27 Noroeste 3.6 -- -- 98
2019-11-14 16:00:00 6.2 19 Noroeste 47 Noroeste 0.8 -- -- 96
2019-11-14 15:00:00 6.9 21 Noroeste 48 Noroeste 0.8 -- -- 96
2019-11-14 14:00:00 7 18 Noroeste 54 Noroeste 0.4 -- -- 95
2019-11-14 13:00:00 7.5 26 Noroeste 51 Noroeste 0.2 -- -- 89
2019-11-14 12:00:00 6.2 20 Noroeste 68 Noroeste 1.8 -- -- 96
2019-11-14 11:00:00 5.8 11 Noroeste 35 Oeste 0.4 -- -- 97
2019-11-14 10:00:00 4.1 9 Noroeste 45 Noroeste 1.6 -- -- 97
2019-11-14 09:00:00 3.4 6 Oeste 21 Oeste 1 -- -- 97
2019-11-14 08:00:00 3.6 7 Noroeste 15 Noroeste 0 -- -- 98
2019-11-14 07:00:00 3.4 4 Noroeste 33 Noroeste 2.4 -- -- 98
2019-11-14 06:00:00 4.1 6 Oeste 15 Oeste 0 -- -- 99
2019-11-14 05:00:00 3.4 3 Oeste 27 Noroeste 1.6 -- -- 98
2019-11-14 04:00:00 4.6 5 Noroeste 14 Noroeste 0 -- -- 98
2019-11-14 03:00:00 4.7 5 Noroeste 31 Noroeste 1.4 -- -- 98
2019-11-14 02:00:00 5.6 10 Noroeste 60 Noroeste 0.8 -- -- 97
2019-11-14 01:00:00 6.7 14 Noroeste 40 Noroeste 0.6 -- -- 97
2019-11-14 00:00:00 7.4 17 Noroeste 41 Noroeste 1 -- -- 98
2019-11-13 23:00:00 8.5 17 Noroeste 44 Noroeste 3.6 -- -- 99
2019-11-13 22:00:00 9.1 14 Noroeste 43 Oeste 2.4 -- -- 98
2019-11-13 21:00:00 9.3 12 Oeste 41 Oeste 0 -- -- 91
2019-11-13 20:00:00 8.8 12 Noroeste 24 Noroeste 0.2 -- -- 94
2019-11-13 19:00:00 8.7 9 Noroeste 19 Noroeste 0.2 -- -- 95
2019-11-13 18:00:00 8.7 5 Oeste 27 Noroeste 0 -- -- 93
2019-11-13 17:00:00 11.6 8 Noroeste 25 Oeste 0 -- -- 81
2019-11-13 16:00:00 12.6 8 Noroeste 23 Noroeste 0 -- -- 80
2019-11-13 15:00:00 12.5 10 Noroeste 20 Noroeste 0 -- -- 78
2019-11-13 14:00:00 11.7 3 Oeste 18 Noroeste 0 -- -- 86
2019-11-13 13:00:00 10 10 Noroeste 25 Noroeste 0 -- -- 94
2019-11-13 12:00:00 10.2 8 Noroeste 16 Noroeste 0 -- -- 97
2019-11-13 11:00:00 10.2 5 Noroeste 15 Norte 0 -- -- 99
2019-11-13 10:00:00 9.7 3 Noroeste 9 Norte 0 -- -- 100
2019-11-13 09:00:00 9.6 0 Calma 6 Noroeste 0 -- -- 100
2019-11-13 08:00:00 9.6 3 Norte 11 Noroeste 0 -- -- 100
2019-11-13 07:00:00 9.9 0 Calma 10 Noroeste 0 -- -- 100
2019-11-13 06:00:00 10.7 2 Noroeste 8 Noroeste 0.2 -- -- 100
2019-11-13 05:00:00 10.8 0 Calma 11 Noroeste 0 -- -- 100
2019-11-13 04:00:00 11.1 5 Noroeste 14 Noroeste 0 -- -- 100
2019-11-13 03:00:00 12.3 9 Noroeste 33 Noroeste 1.8 -- -- 99
2019-11-13 02:00:00 13.5 15 Noroeste 31 Noroeste 0.2 -- -- 100
2019-11-13 01:00:00 13.5 12 Noroeste 35 Noroeste 0.4 -- -- 100
2019-11-13 00:00:00 13.5 13 Noroeste 33 Oeste 4.4 -- -- 100
2019-11-12 23:00:00 13.4 13 Noroeste 29 Noroeste 4.2 -- -- 100
2019-11-12 22:00:00 13.3 15 Noroeste 32 Noroeste 1.4 -- -- 100
2019-11-12 21:00:00 13.1 13 Noroeste 31 Sudoeste 0.4 -- -- 100
2019-11-12 20:00:00 13 14 Noroeste 31 Oeste 2 -- -- 100
2019-11-12 19:00:00 12.8 14 Noroeste 36 Oeste 5.6 -- -- 100
2019-11-12 18:00:00 12.6 16 Noroeste 33 Oeste 4.6 -- -- 99
2019-11-12 17:00:00 11.5 9 Oeste 38 Oeste 3.8 -- -- 99
2019-11-12 16:00:00 11 14 Oeste 36 Oeste 2 -- -- 97
2019-11-12 15:00:00 11.2 9 Sudoeste 28 Oeste 0.2 -- -- 93
2019-11-12 14:00:00 11.3 11 Sudoeste 28 Sur 0 -- -- 89
2019-11-12 13:00:00 9.7 9 Sudoeste 28 Oeste 0 -- -- 93
2019-11-12 12:00:00 9.4 10 Sudoeste 27 Sudoeste 0.2 -- -- 93
2019-11-12 11:00:00 8.7 5 Sudoeste 17 Sudoeste 0.6 -- -- 95
2019-11-12 10:00:00 8.3 5 Sudoeste 14 Oeste 0 -- -- 94
2019-11-12 09:00:00 7.7 3 Oeste 9 Sudoeste 0.2 -- -- 94
2019-11-12 08:00:00 7.7 2 Oeste 6 Oeste 0 -- -- 92
2019-11-12 07:00:00 7.7 2 Sudoeste 9 Oeste 0 -- -- 90
2019-11-12 06:00:00 7.5 2 Oeste 9 Oeste 0 -- -- 91
2019-11-12 05:00:00 7.3 0 Calma 4 Oeste 0 -- -- 93
2019-11-12 04:00:00 7.3 0 Calma 5 Oeste 0.2 -- -- 93
2019-11-12 03:00:00 6.9 2 Nordeste 4 Nordeste 0 -- -- 94
2019-11-12 02:00:00 7.1 0 Calma 4 Nordeste 0 -- -- 95
2019-11-12 01:00:00 7.1 3 Sudeste 8 Sudeste 0 -- -- 94
2019-11-12 00:00:00 7.3 0 Calma 3 Este 0 -- -- 93
2019-11-11 23:00:00 7.5 2 Norte 5 Noroeste 0 -- -- 92
2019-11-11 22:00:00 7.4 0 Calma 4 Sudeste 0 -- -- 92
2019-11-11 21:00:00 7.4 0 Calma 3 Nordeste 0 -- -- 93
2019-11-11 20:00:00 7.4 0 Calma 4 Nordeste 0 -- -- 92
2019-11-11 19:00:00 7.6 0 Calma 13 Nordeste 0 -- -- 89
2019-11-11 18:00:00 9.1 0 Calma 6 Noroeste 0 -- -- 86
2019-11-11 17:00:00 10.7 0 Calma 15 Norte 0 -- -- 79
2019-11-11 16:00:00 13 5 Noroeste 16 Noroeste 0 -- -- 70
2019-11-11 15:00:00 12.4 6 Norte 21 Noroeste 0 -- -- 76
2019-11-11 14:00:00 12.2 5 Noroeste 19 Noroeste 0 -- -- 77
2019-11-11 13:00:00 10.7 6 Noroeste 17 Noroeste 0 -- -- 94
2019-11-11 12:00:00 10.3 4 Noroeste 14 Norte 0 -- -- 99
2019-11-11 11:00:00 9.6 4 Noroeste 14 Noroeste 0 -- -- 100
2019-11-11 10:00:00 9.8 5 Noroeste 27 Norte 0 -- -- 100
2019-11-11 09:00:00 10.7 9 Noroeste 23 Noroeste 0.6 -- -- 100
2019-11-11 08:00:00 11.3 12 Noroeste 23 Noroeste 0 -- -- 100
2019-11-11 07:00:00 11.3 7 Noroeste 13 Noroeste 0 -- -- 100
2019-11-11 06:00:00 11.2 4 Noroeste 10 Noroeste 0.2 -- -- 100
2019-11-11 05:00:00 10.7 4 Noroeste 10 Oeste 0 -- -- 100
2019-11-11 04:00:00 10.2 3 Oeste 10 Oeste 0.4 -- -- 100
2019-11-11 03:00:00 9.5 3 Oeste 9 Oeste 0 -- -- 100
2019-11-11 02:00:00 8.7 2 Noroeste 6 Sudoeste 0.2 -- -- 100
2019-11-11 01:00:00 8.1 2 Norte 13 Este 0 -- -- 100
2019-11-11 00:00:00 7.2 10 Sudeste 17 Sudeste 0.4 -- -- 99
2019-11-10 23:00:00 7.2 8 Sudeste 15 Sudeste 0.4 -- -- 99
2019-11-10 22:00:00 7 8 Sudeste 14 Sudeste 0.2 -- -- 99
2019-11-10 21:00:00 6.8 9 Sudeste 18 Sudeste 0.2 -- -- 99
2019-11-10 20:00:00 6.7 11 Sudeste 18 Sudeste 0.4 -- -- 98
2019-11-10 19:00:00 6.7 8 Sudeste 14 Sudeste 1.2 -- -- 98
2019-11-10 18:00:00 6.9 4 Sudeste 6 Sudeste 0.4 -- -- 97
2019-11-10 17:00:00 7.4 2 Este 4 Este 0.4 -- -- 96
2019-11-10 16:00:00 7.3 2 Norte 5 Norte 1 -- -- 96
2019-11-10 15:00:00 7.8 0 Calma 7 Noroeste 0.6 -- -- 96
2019-11-10 14:00:00 7.8 3 Noroeste 16 Noroeste 1 -- -- 97
2019-11-10 13:00:00 7.4 5 Noroeste 12 Noroeste 1.4 -- -- 98
2019-11-10 12:00:00 7.3 4 Noroeste 23 Noroeste 1.8 -- -- 97
2019-11-10 11:00:00 7.6 10 Noroeste 21 Noroeste 0.8 -- -- 95
2019-11-10 10:00:00 7.3 4 Noroeste 17 Noroeste 0.2 -- -- 98
2019-11-10 09:00:00 6.9 2 Noroeste 19 Noroeste 0.4 -- -- 96
2019-11-10 08:00:00 6.3 3 Noroeste 8 Norte 0 -- -- 97
2019-11-10 07:00:00 6.2 4 Noroeste 9 Noroeste 0 -- -- 98
2019-11-10 06:00:00 6.4 3 Noroeste 12 Noroeste 0 -- -- 98
2019-11-10 05:00:00 6 4 Noroeste 10 Noroeste 0.2 -- -- 99
2019-11-10 04:00:00 6.7 8 Noroeste 19 Noroeste 1 -- -- 98
2019-11-10 03:00:00 6.5 3 Noroeste 16 Noroeste 0 -- -- 97
2019-11-10 02:00:00 6.3 3 Noroeste 10 Norte 0.2 -- -- 98
2019-11-10 01:00:00 6.7 2 Noroeste 8 Noroeste 0 -- -- 97
2019-11-10 00:00:00 7.2 5 Noroeste 13 Noroeste 0.4 -- -- 95
2019-11-09 23:00:00 7.4 8 Noroeste 16 Noroeste 0 -- -- 94
2019-11-09 22:00:00 7.7 5 Noroeste 23 Noroeste 0 -- -- 96
2019-11-09 21:00:00 8.6 12 Noroeste 28 Noroeste 0.2 -- -- 96
2019-11-09 20:00:00 8.8 10 Noroeste 28 Noroeste 0.4 -- -- 98
2019-11-09 19:00:00 9 6 Noroeste 18 Noroeste 0 -- -- 95
2019-11-09 18:00:00 9 5 Noroeste 18 Noroeste 0.2 -- -- 95
2019-11-09 17:00:00 9.7 13 Noroeste 20 Noroeste 0 -- -- 90
2019-11-09 16:00:00 11.1 9 Noroeste 26 Noroeste 0 -- -- 85
2019-11-09 15:00:00 11.1 5 Noroeste 19 Norte 0 -- -- 88
2019-11-09 14:00:00 11.8 8 Noroeste 19 Noroeste 0 -- -- 89
2019-11-09 13:00:00 11.8 5 Noroeste 13 Noroeste 0 -- -- 96
2019-11-09 12:00:00 11.5 7 Noroeste 15 Noroeste 0 -- -- 97
2019-11-09 11:00:00 11.3 5 Noroeste 12 Noroeste 1.4 -- -- 96
2019-11-09 10:00:00 9.7 5 Oeste 25 Oeste 2.6 -- -- 97
2019-11-09 09:00:00 9.5 6 Sudoeste 29 Oeste 0.2 -- -- 95
2019-11-09 08:00:00 9.3 7 Sudoeste 27 Sudoeste 0 -- -- 94
2019-11-09 07:00:00 8.7 9 Sudoeste 23 Sudoeste 0.2 -- -- 94
2019-11-09 06:00:00 8.3 8 Sur 23 Sur 0.2 -- -- 93
2019-11-09 05:00:00 8 8 Sudoeste 22 Sur 0.2 -- -- 91
2019-11-09 04:00:00 8.8 11 Sudoeste 27 Sudoeste 0 -- -- 85
2019-11-09 03:00:00 8.2 5 Oeste 16 Oeste 0 -- -- 86
2019-11-09 02:00:00 7.3 3 Oeste 14 Noroeste 0 -- -- 89
2019-11-09 01:00:00 7.4 5 Oeste 14 Sudoeste 0 -- -- 87
2019-11-09 00:00:00 6.9 4 Oeste 12 Noroeste 0 -- -- 87
2019-11-08 23:00:00 6.6 4 Noroeste 9 Oeste 0 -- -- 89
2019-11-08 22:00:00 6.9 3 Oeste 8 Oeste 0 -- -- 90
2019-11-08 21:00:00 6.7 0 Calma 3 Norte 0 -- -- 94
2019-11-08 20:00:00 7.3 3 Noroeste 6 Norte 0 -- -- 90
2019-11-08 19:00:00 7.1 2 Oeste 9 Noroeste 0 -- -- 89
2019-11-08 18:00:00 8.1 6 Noroeste 12 Noroeste 0 -- -- 85
2019-11-08 17:00:00 9.3 4 Noroeste 26 Noroeste 0 -- -- 84
2019-11-08 16:00:00 11.7 9 Noroeste 24 Noroeste 0 -- -- 72
2019-11-08 15:00:00 11 10 Noroeste 24 Noroeste 0 -- -- 84
2019-11-08 14:00:00 8.2 5 Noroeste 29 Noroeste 0.4 -- -- 91
2019-11-08 13:00:00 10.5 11 Noroeste 24 Noroeste 0 -- -- 84
2019-11-08 12:00:00 8.3 6 Noroeste 17 Noroeste 0.2 -- -- 93
2019-11-08 11:00:00 7.3 5 Noroeste 13 Noroeste 0.8 -- -- 96
2019-11-08 10:00:00 7.2 4 Noroeste 9 Noroeste 0 -- -- 95
2019-11-08 09:00:00 5.4 0 Calma 10 Noroeste 0.4 -- -- 99
2019-11-08 08:00:00 5.1 5 Noroeste 14 Oeste 0.4 -- -- 99
2019-11-08 07:00:00 4.7 3 Este 8 Este 0.6 -- -- 99
2019-11-08 06:00:00 4 2 Noroeste 8 Oeste 0 -- -- 99
2019-11-08 05:00:00 4.3 4 Noroeste 17 Noroeste 0.2 -- -- 99
2019-11-08 04:00:00 3.6 2 Oeste 13 Noroeste 1.2 -- -- 99
2019-11-08 03:00:00 4 4 Noroeste 23 Noroeste 2.8 -- -- 98
2019-11-08 02:00:00 3.9 9 Noroeste 30 Noroeste 3.4 -- -- 98
2019-11-08 01:00:00 4.3 6 Noroeste 36 Noroeste 1.4 -- -- 97
2019-11-08 00:00:00 4.5 4 Noroeste 25 Noroeste 0.4 -- -- 95
2019-11-07 23:00:00 4.5 5 Noroeste 24 Norte 0.4 -- -- 94
2019-11-07 22:00:00 4.2 3 Noroeste 13 Noroeste 0.2 -- -- 96
2019-11-07 21:00:00 4.5 5 Noroeste 28 Noroeste 1 -- -- 96
2019-11-07 20:00:00 4.2 5 Noroeste 12 Noroeste 0 -- -- 96
2019-11-07 19:00:00 5.1 8 Noroeste 27 Noroeste 0.8 -- -- 94
2019-11-07 18:00:00 5.8 11 Noroeste 21 Noroeste 0 -- -- 91
2019-11-07 17:00:00 5.9 4 Noroeste 13 Norte 0.2 -- -- 95
2019-11-07 16:00:00 5.5 10 Noroeste 39 Noroeste 1.4 -- -- 96
2019-11-07 15:00:00 8.7 10 Noroeste 28 Noroeste 0.4 -- -- 87
2019-11-07 14:00:00 7.9 16 Noroeste 45 Noroeste 1.6 -- -- 93
2019-11-07 13:00:00 8.1 11 Noroeste 25 Noroeste 0 -- -- 83
2019-11-07 12:00:00 7.9 5 Noroeste 24 Noroeste 1 -- -- 94
2019-11-07 11:00:00 5.7 19 Noroeste 35 Noroeste 2.2 -- -- 95
2019-11-07 10:00:00 6.6 11 Noroeste 22 Noroeste 0.6 -- -- 92
2019-11-07 09:00:00 6.5 6 Noroeste 12 Norte 0 -- -- 96
2019-11-07 08:00:00 5.7 5 Noroeste 14 Noroeste 0 -- -- 97
2019-11-07 07:00:00 6.2 5 Noroeste 10 Noroeste 0 -- -- 98
2019-11-07 06:00:00 6.2 5 Noroeste 19 Noroeste 0 -- -- 98
2019-11-07 05:00:00 6.6 5 Noroeste 25 Noroeste 0 -- -- 98
2019-11-07 04:00:00 7.2 5 Noroeste 21 Noroeste 0 -- -- 99
2019-11-07 03:00:00 7.6 8 Noroeste 28 Noroeste 0.4 -- -- 99
2019-11-07 02:00:00 7.8 6 Noroeste 17 Noroeste 0.4 -- -- 99
2019-11-07 01:00:00 8 2 Noroeste 7 Noroeste 0 -- -- 99
2019-11-07 00:00:00 8.2 3 Noroeste 28 Noroeste 0.6 -- -- 100
2019-11-06 23:00:00 9 15 Noroeste 28 Noroeste 0.2 -- -- 100
2019-11-06 22:00:00 9.8 14 Noroeste 28 Noroeste 0.8 -- -- 99
2019-11-06 21:00:00 11.1 9 Noroeste 26 Noroeste 1.2 -- -- 99
2019-11-06 20:00:00 11.7 10 Noroeste 23 Noroeste 0.8 -- -- 99
2019-11-06 19:00:00 11.8 6 Noroeste 27 Oeste 0.2 -- -- 97
2019-11-06 18:00:00 12 7 Oeste 26 Oeste 0 -- -- 93
2019-11-06 17:00:00 12.4 9 Oeste 27 Sur 0 -- -- 91
2019-11-06 16:00:00 12.5 7 Sudoeste 23 Sudoeste 0 -- -- 89
2019-11-06 15:00:00 11.7 9 Sudoeste 24 Oeste 0 -- -- 91
2019-11-06 14:00:00 12.1 7 Sudoeste 21 Sudoeste 0.2 -- -- 91
2019-11-06 13:00:00 11.1 7 Sudoeste 18 Sudoeste 0 -- -- 94
2019-11-06 12:00:00 10.6 3 Sudoeste 14 Oeste 0 -- -- 96
2019-11-06 11:00:00 10.2 5 Sudoeste 13 Sudoeste 0.2 -- -- 94
2019-11-06 10:00:00 9.9 2 Oeste 14 Sudoeste 0 -- -- 94
2019-11-06 09:00:00 9.2 2 Sudoeste 7 Noroeste 0 -- -- 97
2019-11-06 08:00:00 8.9 3 Oeste 9 Oeste 0.2 -- -- 97
2019-11-06 07:00:00 8.9 0 Calma 9 Oeste 0.2 -- -- 98
2019-11-06 06:00:00 8.8 4 Oeste 9 Oeste 0 -- -- 99
2019-11-06 05:00:00 8.7 2 Noroeste 6 Noroeste 0 -- -- 99
2019-11-06 04:00:00 8.5 0 Calma 6 Noroeste 0.8 -- -- 100
2019-11-06 03:00:00 8.6 0 Calma 5 Oeste 0.2 -- -- 99
2019-11-06 02:00:00 8.2 0 Calma 4 Noroeste 0 -- -- 100
2019-11-06 01:00:00 8.6 0 Calma 5 Noroeste 0 -- -- 100
2019-11-06 00:00:00 8.5 3 Noroeste 6 Noroeste 0 -- -- 99
2019-11-05 23:00:00 8.6 2 Noroeste 5 Noroeste 0 -- -- 99
2019-11-05 22:00:00 8.8 2 Noroeste 7 Noroeste 0 -- -- 99
2019-11-05 21:00:00 9.3 5 Noroeste 9 Noroeste 0.6 -- -- 98
2019-11-05 20:00:00 8.7 0 Calma 15 Noroeste 0 -- -- 97
2019-11-05 19:00:00 10 5 Noroeste 15 Noroeste 0 -- -- 96
2019-11-05 18:00:00 10.2 5 Noroeste 17 Noroeste 0 -- -- 92
2019-11-05 17:00:00 11 10 Noroeste 26 Noroeste 0 -- -- 86
2019-11-05 16:00:00 12 15 Noroeste 32 Noroeste 0 -- -- 85
2019-11-05 15:00:00 12.8 13 Noroeste 35 Noroeste 1 -- -- 90
2019-11-05 14:00:00 12.1 10 Noroeste 27 Norte 0 -- -- 92
2019-11-05 13:00:00 11.7 9 Noroeste 31 Noroeste 0.6 -- -- 97
2019-11-05 12:00:00 11.3 8 Noroeste 24 Noroeste 3.6 -- -- 99
2019-11-05 11:00:00 9.9 5 Noroeste 23 Noroeste 2.8 -- -- 98
2019-11-05 10:00:00 10.4 9 Noroeste 22 Noroeste 0 -- -- 95
2019-11-05 09:00:00 9.2 7 Noroeste 22 Noroeste 0 -- -- 97
2019-11-05 08:00:00 9.1 10 Noroeste 23 Noroeste 0.4 -- -- 98
2019-11-05 07:00:00 9.2 9 Noroeste 19 Oeste 0 -- -- 98
2019-11-05 06:00:00 8.9 7 Noroeste 25 Oeste 0 -- -- 98
2019-11-05 05:00:00 9 8 Noroeste 22 Noroeste 0 -- -- 97
2019-11-05 04:00:00 8.3 4 Noroeste 13 Noroeste 0.2 -- -- 97
2019-11-05 03:00:00 8.3 7 Noroeste 18 Noroeste 0 -- -- 96
2019-11-05 02:00:00 8.3 9 Noroeste 22 Noroeste 0 -- -- 95
2019-11-05 01:00:00 8 7 Noroeste 17 Noroeste 0.4 -- -- 97
2019-11-05 00:00:00 7.9 8 Noroeste 17 Sudoeste 0.2 -- -- 96
2019-11-04 23:00:00 8 8 Noroeste 28 Oeste 0.6 -- -- 95
2019-11-04 22:00:00 7.7 8 Noroeste 28 Oeste 1 -- -- 96
2019-11-04 21:00:00 7.9 6 Noroeste 24 Noroeste 1.8 -- -- 96
2019-11-04 20:00:00 8 8 Noroeste 21 Noroeste 0 -- -- 94
2019-11-04 19:00:00 8 6 Oeste 31 Oeste 1.2 -- -- 96
2019-11-04 18:00:00 9.1 11 Noroeste 33 Noroeste 0.4 -- -- 90
2019-11-04 17:00:00 10.6 8 Noroeste 32 Sudoeste 0 -- -- 85
2019-11-04 16:00:00 12 12 Oeste 35 Oeste 0.2 -- -- 76
2019-11-04 15:00:00 11.1 12 Noroeste 34 Noroeste 0 -- -- 83
2019-11-04 14:00:00 12.6 14 Noroeste 34 Noroeste 0.2 -- -- 78
2019-11-04 13:00:00 10.6 12 Noroeste 33 Noroeste 0 -- -- 90
2019-11-04 12:00:00 10.2 11 Noroeste 30 Noroeste 1.4 -- -- 97
2019-11-04 11:00:00 10.6 10 Oeste 39 Sudoeste 1 -- -- 94
2019-11-04 10:00:00 11.1 11 Noroeste 32 Oeste 0 -- -- 92
2019-11-04 09:00:00 11.3 14 Noroeste 39 Oeste 0.4 -- -- 94
2019-11-04 08:00:00 11.1 12 Noroeste 39 Oeste 0.2 -- -- 94
2019-11-04 07:00:00 11.7 20 Noroeste 61 Noroeste 1.2 -- -- 98
2019-11-04 06:00:00 11.5 18 Noroeste 54 Oeste 3.2 -- -- 98
2019-11-04 05:00:00 12.9 18 Oeste 52 Oeste 0.8 -- -- 97
2019-11-04 04:00:00 12.5 13 Oeste 36 Oeste 1 -- -- 98
2019-11-04 03:00:00 12.7 14 Oeste 49 Sudoeste 0.2 -- -- 98
2019-11-04 02:00:00 12.5 14 Oeste 46 Oeste 0.8 -- -- 99
2019-11-04 01:00:00 12.7 17 Oeste 52 Oeste 1 -- -- 98
2019-11-04 00:00:00 12.6 14 Oeste 44 Oeste 0.6 -- -- 98
2019-11-03 23:00:00 12.5 15 Oeste 40 Oeste 0.2 -- -- 98
2019-11-03 22:00:00 13.3 15 Noroeste 37 Oeste 0.8 -- -- 98
2019-11-03 21:00:00 13.5 17 Noroeste 40 Norte 1.4 -- -- 98
2019-11-03 20:00:00 13.9 13 Noroeste 39 Oeste 1.4 -- -- 99
2019-11-03 19:00:00 13.6 10 Oeste 35 Oeste 1.2 -- -- 98
2019-11-03 18:00:00 13.6 14 Oeste 33 Oeste 0.4 -- -- 98
2019-11-03 17:00:00 12.6 10 Oeste 40 Oeste 0.8 -- -- 97
2019-11-03 16:00:00 13.4 11 Oeste 33 Oeste 0.2 -- -- 92
2019-11-03 15:00:00 12.6 9 Sudoeste 28 Sudoeste 0.2 -- -- 93
2019-11-03 14:00:00 13 10 Oeste 30 Oeste 0 -- -- 86
2019-11-03 13:00:00 13.1 12 Oeste 28 Sudoeste 0 -- -- 85
2019-11-03 12:00:00 12.3 10 Oeste 28 Sur 0 -- -- 84
2019-11-03 11:00:00 11 8 Noroeste 22 Oeste 0 -- -- 89
2019-11-03 10:00:00 11.2 5 Noroeste 21 Noroeste 0 -- -- 88
2019-11-03 09:00:00 9.3 9 Noroeste 22 Noroeste 0 -- -- 94
2019-11-03 08:00:00 8.7 13 Noroeste 27 Noroeste 0.4 -- -- 97
2019-11-03 07:00:00 8.6 8 Noroeste 25 Noroeste 0.2 -- -- 98
2019-11-03 06:00:00 8.8 10 Noroeste 32 Noroeste 0.4 -- -- 97
2019-11-03 05:00:00 9.3 12 Noroeste 32 Noroeste 0.8 -- -- 97
2019-11-03 04:00:00 9.7 13 Noroeste 35 Noroeste 0 -- -- 91
2019-11-03 03:00:00 10.4 16 Noroeste 43 Noroeste 0 -- -- 88
2019-11-03 02:00:00 11.1 23 Noroeste 59 Noroeste 5 -- -- 97
2019-11-03 01:00:00 13.2 23 Noroeste 53 Noroeste 1.8 -- -- 97
2019-11-03 00:00:00 12.6 19 Oeste 59 Sudoeste 1 -- -- 98
2019-11-02 23:00:00 11.9 14 Oeste 41 Oeste 1 -- -- 98
2019-11-02 22:00:00 11.4 13 Noroeste 41 Oeste 1 -- -- 97
2019-11-02 21:00:00 10.7 9 Oeste 60 Noroeste 0.8 -- -- 96
2019-11-02 20:00:00 11.1 11 Oeste 40 Oeste 0 -- -- 93
2019-11-02 19:00:00 11.7 15 Oeste 44 Oeste 0.6 -- -- 93
2019-11-02 18:00:00 11.9 12 Oeste 43 Oeste 0.2 -- -- 93
2019-11-02 17:00:00 12.4 11 Oeste 34 Oeste 0.2 -- -- 92
2019-11-02 16:00:00 12.5 11 Noroeste 33 Oeste 0.4 -- -- 92
2019-11-02 15:00:00 12.8 12 Oeste 36 Oeste 0 -- -- 89
2019-11-02 14:00:00 13.7 12 Oeste 31 Oeste 0 -- -- 84
2019-11-02 13:00:00 13.7 8 Oeste 27 Oeste 0 -- -- 86
2019-11-02 12:00:00 13.1 6 Oeste 20 Oeste 0 -- -- 91
2019-11-02 11:00:00 11.6 5 Noroeste 28 Noroeste 0 -- -- 96
2019-11-02 10:00:00 12.1 4 Sudoeste 16 Oeste 0.6 -- -- 97
2019-11-02 09:00:00 11.7 4 Oeste 17 Noroeste 1 -- -- 99
2019-11-02 08:00:00 11.9 9 Noroeste 18 Noroeste 0.8 -- -- 98
2019-11-02 07:00:00 11.9 3 Oeste 15 Oeste 0 -- -- 97
2019-11-02 06:00:00 12.2 8 Noroeste 23 Noroeste 0.2 -- -- 98
2019-11-02 05:00:00 12.8 9 Noroeste 23 Oeste 0.2 -- -- 99
2019-11-02 04:00:00 12.9 7 Noroeste 23 Noroeste 0 -- -- 99
2019-11-02 03:00:00 13.1 7 Noroeste 23 Oeste 0.8 -- -- 100
2019-11-02 02:00:00 14 6 Noroeste 23 Noroeste 0.8 -- -- 100
2019-11-02 01:00:00 14.4 9 Noroeste 26 Sudoeste 3.2 -- -- 99
2019-11-02 00:00:00 14.9 10 Noroeste 35 Oeste 1.4 -- -- 98
2019-11-01 23:00:00 15.1 9 Noroeste 40 Oeste 1.8 -- -- 98
2019-11-01 22:00:00 15.1 11 Noroeste 34 Oeste 1.4 -- -- 97
2019-11-01 21:00:00 15.5 14 Noroeste 40 Oeste 0.8 -- -- 98
2019-11-01 20:00:00 15.6 11 Noroeste 38 Noroeste 3 -- -- 98
2019-11-01 19:00:00 15.7 16 Oeste 45 Oeste 0.4 -- -- 97
2019-11-01 18:00:00 15.8 15 Oeste 40 Oeste 0.8 -- -- 96
2019-11-01 17:00:00 16.1 13 Noroeste 45 Oeste 2 -- -- 97
2019-11-01 16:00:00 16.2 10 Oeste 46 Oeste 1 -- -- 97
2019-11-01 15:00:00 16.5 11 Oeste 42 Oeste 1 -- -- 97
2019-11-01 14:00:00 16.5 13 Oeste 36 Oeste 1.6 -- -- 97
2019-11-01 13:00:00 16.3 13 Oeste 37 Sudoeste 2 -- -- 98
2019-11-01 12:00:00 16.8 12 Oeste 33 Oeste 1.2 -- -- 97
2019-11-01 11:00:00 16.3 14 Oeste 38 Oeste 0.8 -- -- 99
2019-11-01 10:00:00 16.5 7 Noroeste 30 Sudoeste 11.4 -- -- 99
2019-11-01 09:00:00 16.6 8 Oeste 24 Sudoeste 1 -- -- 98
2019-11-01 08:00:00 16.3 5 Sudoeste 21 Oeste 0.4 -- -- 98
2019-11-01 07:00:00 16.2 6 Oeste 26 Sudoeste 0.4 -- -- 97
2019-11-01 06:00:00 16.3 10 Oeste 28 Oeste 0.8 -- -- 97
2019-11-01 05:00:00 16.5 7 Oeste 23 Oeste 0.2 -- -- 97
2019-11-01 04:00:00 16.4 6 Oeste 32 Oeste 0 -- -- 98
2019-11-01 03:00:00 16.6 6 Oeste 22 Oeste 0.2 -- -- 98
2019-11-01 02:00:00 16.5 8 Oeste 22 Noroeste 0 -- -- 98
2019-11-01 01:00:00 16.8 8 Noroeste 23 Noroeste 0 -- -- 98
2019-11-01 00:00:00 16.8 5 Oeste 21 Oeste 0 -- -- 98
2019-10-31 23:00:00 16.9 5 Oeste 14 Oeste 0.2 -- -- 98
2019-10-31 22:00:00 16.6 3 Oeste 13 Oeste 0 -- -- 98
2019-10-31 21:00:00 16.5 3 Oeste 13 Sudoeste 0.2 -- -- 97
2019-10-31 20:00:00 16.6 3 Sudoeste 13 Sur 1.4 -- -- 96
2019-10-31 19:00:00 16.7 4 Oeste 20 Sudoeste 0 -- -- 94
2019-10-31 18:00:00 17.3 5 Oeste 20 Oeste 0 -- -- 93
2019-10-31 17:00:00 18.1 5 Oeste 17 Noroeste 0 -- -- 90
2019-10-31 16:00:00 19 6 Sudoeste 24 Sudoeste 0 -- -- 85
2019-10-31 15:00:00 18.5 11 Sudoeste 24 Sudoeste 0 -- -- 87
2019-10-31 14:00:00 17.7 4 Sudeste 10 Sudeste 0 -- -- 90
2019-10-31 13:00:00 18.1 4 Sur 9 Sudoeste 0 -- -- 84
2019-10-31 12:00:00 18.9 4 Sudoeste 16 Sudoeste 0 -- -- 79
2019-10-31 11:00:00 18 5 Sudoeste 14 Sudoeste 0 -- -- 83
2019-10-31 10:00:00 16.7 4 Oeste 14 Oeste 0 -- -- 90
2019-10-31 09:00:00 15.9 3 Oeste 9 Sur 0 -- -- 92
2019-10-31 08:00:00 14.4 4 Sudeste 10 Nordeste 0 -- -- 94
2019-10-31 07:00:00 14.8 5 Nordeste 7 Este 0 -- -- 93
2019-10-31 06:00:00 15.2 3 Sur 9 Sudoeste 0 -- -- 92
2019-10-31 05:00:00 14.9 3 Nordeste 9 Sudoeste 0 -- -- 93
2019-10-31 04:00:00 15.1 3 Sudeste 8 Sur 0 -- -- 92
2019-10-31 03:00:00 15.4 4 Sudoeste 14 Oeste 0 -- -- 92
2019-10-31 02:00:00 15.3 4 Sudoeste 12 Sudoeste 0 -- -- 92
2019-10-31 01:00:00 15.1 4 Sudoeste 10 Sur 0 -- -- 94
2019-10-31 00:00:00 15.1 0 Calma 13 Oeste 0 -- -- 94
2019-10-30 23:00:00 15.1 0 Calma 6 Sudoeste 0 -- -- 94
2019-10-30 22:00:00 15 3 Oeste 12 Oeste 0 -- -- 93
2019-10-30 21:00:00 14.9 0 Calma 10 Sur 0 -- -- 94
2019-10-30 20:00:00 15.1 0 Calma 7 Sudoeste 0 -- -- 94
2019-10-30 19:00:00 15.5 4 Noroeste 14 Sudoeste 0 -- -- 93
2019-10-30 18:00:00 17.3 3 Oeste 12 Sudoeste 0 -- -- 90
2019-10-30 17:00:00 18.2 3 Oeste 21 Noroeste 0 -- -- 88
2019-10-30 16:00:00 18 10 Noroeste 21 Noroeste 0.2 -- -- 93
2019-10-30 15:00:00 18.9 6 Sudoeste 15 Oeste 0 -- -- 88
2019-10-30 14:00:00 18.6 5 Oeste 21 Oeste 1 -- -- 89
2019-10-30 13:00:00 18.4 8 Sudoeste 17 Sur 0.2 -- -- 89
2019-10-30 12:00:00 18 5 Sur 15 Sudoeste 0.6 -- -- 88
2019-10-30 11:00:00 17.3 6 Sur 16 Este 0.2 -- -- 87
2019-10-30 10:00:00 15.5 10 Sudeste 24 Sudeste 0 -- -- 95
2019-10-30 09:00:00 15.7 9 Sudeste 17 Sur 0.2 -- -- 93
2019-10-30 08:00:00 15.7 7 Sudeste 18 Sudeste 0 -- -- 92
2019-10-30 07:00:00 15.4 9 Sudeste 24 Sudeste 0 -- -- 94
2019-10-30 06:00:00 15.5 11 Sudeste 22 Sudeste 0.8 -- -- 93
2019-10-30 05:00:00 16.5 10 Sudeste 22 Sudeste 0 -- -- 85
2019-10-30 04:00:00 16.6 7 Sur 17 Sudeste 0 -- -- 85
2019-10-30 03:00:00 16.3 6 Sur 21 Sur 0 -- -- 87
2019-10-30 02:00:00 16.5 13 Sur 22 Sur 0 -- -- 86
2019-10-30 01:00:00 15.8 5 Sudoeste 15 Sudoeste 0 -- -- 88
2019-10-30 00:00:00 16.1 6 Sur 14 Sur 0 -- -- 88
2019-10-29 23:00:00 15.9 8 Sur 12 Sur 0 -- -- 88
2019-10-29 22:00:00 15.9 4 Sudoeste 15 Sur 0 -- -- 89
2019-10-29 21:00:00 15.6 6 Sur 12 Sudoeste 0 -- -- 90
2019-10-29 20:00:00 16 6 Sudoeste 16 Sudoeste 0 -- -- 90
2019-10-29 19:00:00 15.8 7 Sudoeste 15 Sur 0 -- -- 91
2019-10-29 18:00:00 15.9 6 Sudoeste 15 Sur 0 -- -- 90
2019-10-29 17:00:00 15.7 7 Sudeste 13 Sur 0.2 -- -- 94
2019-10-29 16:00:00 16.1 8 Sudeste 13 Sur 0 -- -- 91
2019-10-29 15:00:00 16.8 5 Sur 13 Sudoeste 0 -- -- 87
2019-10-29 14:00:00 17.6 6 Sur 19 Sur 0 -- -- 80
2019-10-29 13:00:00 18.4 9 Sudoeste 27 Sudoeste 0 -- -- 77
2019-10-29 12:00:00 17.9 6 Sudoeste 22 Sudoeste 0 -- -- 80
2019-10-29 11:00:00 16.8 9 Sudoeste 19 Sudeste 0 -- -- 83
2019-10-29 10:00:00 16.5 8 Sudoeste 19 Sur 0 -- -- 86
2019-10-29 09:00:00 14.1 6 Sur 14 Sudoeste 0.4 -- -- 93
2019-10-29 08:00:00 13.9 6 Sur 18 Sudoeste 0 -- -- 90
2019-10-29 07:00:00 13.7 6 Sur 22 Sudoeste 0 -- -- 91
2019-10-29 06:00:00 14.1 8 Sudoeste 23 Sudoeste 0 -- -- 89
2019-10-29 05:00:00 14.6 6 Sudoeste 18 Sudeste 0 -- -- 91
2019-10-29 04:00:00 14.5 3 Sur 21 Sudoeste 0 -- -- 91
2019-10-29 03:00:00 14.7 7 Sudoeste 18 Sudoeste 0 -- -- 90
2019-10-29 02:00:00 14.6 8 Sur 22 Sur 0 -- -- 91
2019-10-29 01:00:00 14.4 6 Sudoeste 26 Oeste 0.4 -- -- 96
2019-10-29 00:00:00 14.9 4 Oeste 22 Oeste 0.8 -- -- 97
2019-10-28 23:00:00 15.3 6 Sudoeste 16 Sudoeste 0 -- -- 95
2019-10-28 22:00:00 14.9 3 Sudoeste 20 Sudoeste 1.4 -- -- 95
2019-10-28 21:00:00 17 6 Sur 19 Sudoeste 0 -- -- 84
2019-10-28 20:00:00 17 8 Sur 22 Sudoeste 0 -- -- 84
2019-10-28 19:00:00 16.7 7 Sur 16 Sudoeste 0 -- -- 85
2019-10-28 18:00:00 17 8 Sudoeste 18 Sudoeste 0 -- -- 86
2019-10-28 17:00:00 17.4 8 Sudoeste 24 Sudoeste 0 -- -- 87
2019-10-28 16:00:00 17.9 8 Sudoeste 23 Sudoeste 0 -- -- 86
2019-10-28 15:00:00 18.7 11 Sudoeste 32 Sudoeste 0 -- -- 79
2019-10-28 14:00:00 20.3 15 Sur 33 Sur 0 -- -- 72
2019-10-28 13:00:00 19.5 11 Sur 34 Sur 0 -- -- 74
2019-10-28 12:00:00 21.5 10 Sudoeste 30 Sur 0 -- -- 68
2019-10-28 11:00:00 19.8 15 Sur 33 Sudoeste 0 -- -- 72
2019-10-28 10:00:00 16.4 14 Sudeste 23 Este 0 -- -- 78
2019-10-28 09:00:00 15.4 13 Sudeste 22 Sudeste 0 -- -- 79
2019-10-28 08:00:00 13.8 15 Sudeste 28 Sudeste 0 -- -- 83
2019-10-28 07:00:00 13.8 13 Sudeste 21 Sudeste 0 -- -- 83
2019-10-28 06:00:00 13.5 13 Sudeste 27 Sudeste 0 -- -- 85
2019-10-28 05:00:00 14.1 15 Sudeste 26 Sudeste 0 -- -- 81
2019-10-28 04:00:00 14.5 9 Sudeste 21 Sudeste 0 -- -- 81
2019-10-28 03:00:00 14.6 4 Sudeste 21 Sudeste 0 -- -- 77
2019-10-28 02:00:00 14.3 9 Sudeste 22 Sudoeste 0 -- -- 77
2019-10-28 01:00:00 14.6 8 Sudoeste 19 Sudeste 0 -- -- 76
2019-10-28 00:00:00 13.4 3 Sudeste 17 Sudeste 0 -- -- 81
2019-10-27 23:00:00 14 13 Sudeste 21 Este 0 -- -- 77
2019-10-27 22:00:00 13.2 2 Sudoeste 6 Oeste 0 -- -- 82
2019-10-27 21:00:00 12.6 0 Calma 5 Noroeste 0 -- -- 87
2019-10-27 20:00:00 13.8 0 Calma 6 Nordeste 0 -- -- 84
2019-10-27 19:00:00 14.9 3 Este 10 Sudeste 0 -- -- 82
2019-10-27 18:00:00 18.2 4 Sudeste 16 Este 0 -- -- 66
2019-10-27 17:00:00 18.2 9 Sudeste 18 Sudeste 0 -- -- 68
2019-10-27 16:00:00 17.7 10 Sudeste 20 Sudeste 0 -- -- 69
2019-10-27 15:00:00 18 13 Sudeste 20 Sudeste 0 -- -- 66
2019-10-27 14:00:00 18.5 12 Sudeste 26 Sudeste 0 -- -- 63
2019-10-27 13:00:00 18.2 11 Sudeste 22 Sudeste 0 -- -- 65
2019-10-27 12:00:00 18.1 12 Sudeste 22 Este 0 -- -- 65
2019-10-27 11:00:00 17.4 14 Sudeste 25 Sudeste 0 -- -- 62
2019-10-27 10:00:00 16.5 13 Sudeste 23 Sudeste 0 -- -- 64
2019-10-27 09:00:00 15.9 14 Sudeste 23 Sudeste 0 -- -- 66
2019-10-27 08:00:00 15 6 Sudeste 24 Sudeste 0 -- -- 71
2019-10-27 07:00:00 16 15 Sudeste 25 Sudeste 0 -- -- 65
2019-10-27 06:00:00 15.5 13 Sudeste 21 Sudeste 0 -- -- 68
2019-10-27 05:00:00 15.2 8 Sudeste 14 Sudeste 0 -- -- 70
2019-10-27 04:00:00 14.8 0 Calma 13 Este 0 -- -- 75
2019-10-27 03:00:00 15.5 7 Sudeste 22 Sudeste 0 -- -- 71
2019-10-27 02:00:00 15.5 4 Este 12 Sudeste 0 -- -- 70
2019-10-27 01:00:00 17 10 Sur 23 Sur 0 -- -- 61
2019-10-27 00:00:00 17.2 12 Sur 21 Sur 0 -- -- 63
2019-10-26 23:00:00 17.1 8 Sudoeste 20 Sudeste 0 -- -- 60
2019-10-26 22:00:00 17.1 5 Sur 11 Sudeste 0 -- -- 56
2019-10-26 21:00:00 17.4 4 Sudeste 17 Sur 0 -- -- 56
2019-10-26 20:00:00 16 5 Sur 15 Sudoeste 0 -- -- 73
2019-10-26 19:00:00 18.2 4 Oeste 14 Sudoeste 0 -- -- 63
2019-10-26 18:00:00 19 9 Sur 22 Oeste 0 -- -- 53
2019-10-26 17:00:00 22.5 8 Sudoeste 24 Sudoeste 0 -- -- 46
2019-10-26 16:00:00 22.4 11 Sur 28 Oeste 0 -- -- 41
2019-10-26 15:00:00 21.5 17 Sur 31 Sur 0 -- -- 40
2019-10-26 14:00:00 21.3 10 Sudoeste 27 Sudoeste 0 -- -- 46
2019-10-26 13:00:00 20.3 10 Sudoeste 31 Sur 0 -- -- 49
2019-10-26 12:00:00 20.5 11 Sudoeste 26 Sudoeste 0 -- -- 47
2019-10-26 11:00:00 21.2 3 Oeste 14 Sur 0 -- -- 48
2019-10-26 10:00:00 17.4 2 Oeste 17 Sudeste 0 -- -- 58
2019-10-26 09:00:00 13.8 4 Sudoeste 17 Sudeste 0 -- -- 65
2019-10-26 08:00:00 13.6 10 Sudeste 18 Sur 0 -- -- 69
2019-10-26 07:00:00 12.9 11 Sudeste 20 Sudeste 0 -- -- 75
2019-10-26 06:00:00 12.6 10 Sudeste 15 Sudeste 0 -- -- 77
2019-10-26 05:00:00 13.3 9 Sudeste 21 Sudeste 0 -- -- 74
2019-10-26 04:00:00 14.1 15 Sudeste 29 Sudeste 0 -- -- 71
2019-10-26 03:00:00 13.3 10 Sudeste 21 Sudeste 0 -- -- 73
2019-10-26 02:00:00 13.4 12 Sudeste 18 Sudeste 0 -- -- 74
2019-10-26 01:00:00 12.1 6 Sudeste 10 Sudeste 0 -- -- 79
2019-10-26 00:00:00 11.6 3 Este 7 Nordeste 0 -- -- 81
2019-10-25 23:00:00 12.6 0 Calma 11 Sudeste 0 -- -- 75
2019-10-25 22:00:00 12.6 3 Este 9 Este 0 -- -- 76
2019-10-25 21:00:00 13.3 0 Calma 10 Sur 0 -- -- 68
2019-10-25 20:00:00 14.8 4 Sur 11 Oeste 0 -- -- 59
2019-10-25 19:00:00 17.3 5 Sudoeste 20 Sur 0 -- -- 56
2019-10-25 18:00:00 21.1 7 Sudoeste 21 Sudeste 0 -- -- 47
2019-10-25 17:00:00 20.2 12 Sur 30 Sudoeste 0 -- -- 51
2019-10-25 16:00:00 18.8 9 Sudoeste 27 Sudoeste 0 -- -- 61
2019-10-25 15:00:00 18.4 10 Sudoeste 28 Oeste 0 -- -- 65
2019-10-25 14:00:00 17.3 17 Sudoeste 33 Sudoeste 0 -- -- 65
2019-10-25 13:00:00 16.9 14 Sudoeste 33 Sudoeste 0 -- -- 65
2019-10-25 12:00:00 15.7 9 Sur 26 Sur 0 -- -- 71
2019-10-25 11:00:00 13.7 12 Sudeste 23 Sudeste 0 -- -- 77
2019-10-25 10:00:00 12.8 13 Sur 27 Sudeste 0 -- -- 78
2019-10-25 09:00:00 12.1 14 Sur 24 Sudeste 0 -- -- 80
2019-10-25 08:00:00 12.1 11 Sur 21 Sudoeste 0 -- -- 81
2019-10-25 07:00:00 12.1 7 Sur 19 Sur 0 -- -- 82
2019-10-25 06:00:00 11.7 9 Sudeste 21 Sudeste 0 -- -- 83
2019-10-25 05:00:00 11.6 11 Sudeste 22 Sudeste 0 -- -- 81
2019-10-25 04:00:00 11.8 7 Sudeste 17 Sudeste 0 -- -- 83
2019-10-25 03:00:00 12.4 8 Sudeste 16 Sudeste 0 -- -- 82
2019-10-25 02:00:00 12.1 9 Sudeste 18 Sudeste 0 -- -- 83
2019-10-25 01:00:00 12.1 9 Sudeste 20 Sudeste 0 -- -- 84
2019-10-25 00:00:00 11.7 3 Sudeste 15 Sur 0 -- -- 86
2019-10-24 23:00:00 11.9 9 Sur 19 Sudeste 0 -- -- 85
2019-10-24 22:00:00 12.2 4 Sur 18 Sudoeste 0 -- -- 86
2019-10-24 21:00:00 12.6 7 Sur 20 Sur 0 -- -- 86
2019-10-24 20:00:00 12 9 Sudoeste 26 Sudoeste 0 -- -- 93
2019-10-24 19:00:00 12.9 11 Sudoeste 23 Sudoeste 0 -- -- 92
2019-10-24 18:00:00 13.3 11 Noroeste 25 Oeste 0 -- -- 90
2019-10-24 17:00:00 13.5 9 Oeste 26 Oeste 0 -- -- 89
2019-10-24 16:00:00 14.5 8 Sudoeste 29 Oeste 0 -- -- 89
2019-10-24 15:00:00 14.3 7 Oeste 29 Oeste 0.2 -- -- 93
2019-10-24 14:00:00 14.5 9 Oeste 25 Oeste 0.6 -- -- 92
2019-10-24 13:00:00 12.9 10 Oeste 23 Oeste 1.2 -- -- 96
2019-10-24 12:00:00 12.5 5 Sudoeste 23 Oeste 0.4 -- -- 96
2019-10-24 11:00:00 11.9 8 Sudoeste 24 Oeste 0.6 -- -- 96
2019-10-24 10:00:00 11.3 7 Sudoeste 22 Sur 0.4 -- -- 95
2019-10-24 09:00:00 11.2 5 Sudoeste 27 Sur 0 -- -- 95
2019-10-24 08:00:00 11.4 8 Sudoeste 24 Sudoeste 0 -- -- 91
2019-10-24 07:00:00 11 6 Sudoeste 19 Oeste 0 -- -- 92
2019-10-24 06:00:00 10.7 6 Oeste 21 Oeste 0 -- -- 91
2019-10-24 05:00:00 10.4 4 Sudoeste 22 Sudoeste 0 -- -- 91
2019-10-24 04:00:00 10.2 4 Sudoeste 14 Oeste 0 -- -- 92
2019-10-24 03:00:00 9.5 2 Sudoeste 15 Sudoeste 0 -- -- 92
2019-10-24 02:00:00 8.7 4 Oeste 12 Sudoeste 0 -- -- 95
2019-10-24 01:00:00 8.5 0 Calma 5 Noroeste 0 -- -- 96
2019-10-24 00:00:00 9.2 3 Noroeste 9 Oeste 0 -- -- 95
2019-10-23 23:00:00 9.9 0 Calma 8 Norte 0 -- -- 95
2019-10-23 22:00:00 9.9 2 Noroeste 5 Oeste 0 -- -- 93
2019-10-23 21:00:00 9.8 0 Calma 4 Noroeste 0 -- -- 91
2019-10-23 20:00:00 9.9 0 Calma 10 Noroeste 0 -- -- 88
2019-10-23 19:00:00 12.2 5 Noroeste 12 Noroeste 0 -- -- 80
2019-10-23 18:00:00 13 4 Noroeste 20 Noroeste 0 -- -- 75
2019-10-23 17:00:00 14 7 Noroeste 20 Noroeste 0 -- -- 72
2019-10-23 16:00:00 15.7 12 Noroeste 23 Noroeste 0 -- -- 64
2019-10-23 15:00:00 14.4 7 Norte 26 Noroeste 0 -- -- 70
2019-10-23 14:00:00 14.5 10 Noroeste 23 Noroeste 0 -- -- 68
2019-10-23 13:00:00 13.5 7 Noroeste 15 Noroeste 0 -- -- 80
2019-10-23 12:00:00 11.1 6 Noroeste 15 Noroeste 0 -- -- 98
2019-10-23 11:00:00 10.3 0 Calma 4 Noroeste 0 -- -- 98
2019-10-23 10:00:00 9.5 0 Calma 4 Noroeste 0 -- -- 99
2019-10-23 09:00:00 9.1 0 Calma 5 Noroeste 0 -- -- 99
2019-10-23 08:00:00 9.1 0 Calma 4 Oeste 0 -- -- 99
2019-10-23 07:00:00 8.9 0 Calma 5 Noroeste 0 -- -- 99
2019-10-23 06:00:00 8.7 0 Calma 2 Noroeste 0 -- -- 98
2019-10-23 05:00:00 8.4 0 Calma 3 Noroeste 0 -- -- 98
2019-10-23 04:00:00 8.2 0 Calma 4 Noroeste 0 -- -- 98
2019-10-23 03:00:00 8 0 Calma 3 Oeste 0.4 -- -- 97
2019-10-23 02:00:00 7.8 0 Calma 4 Oeste 0 -- -- 96
2019-10-23 01:00:00 7.4 2 Noroeste 4 Noroeste 0 -- -- 96
2019-10-23 00:00:00 7.5 0 Calma 4 Noroeste 0 -- -- 95
2019-10-22 23:00:00 8 3 Noroeste 11 Norte 0 -- -- 93
2019-10-22 22:00:00 8.9 2 Norte 13 Nordeste 0 -- -- 87
2019-10-22 21:00:00 10.1 4 Nordeste 18 Nordeste 0 -- -- 81
2019-10-22 20:00:00 10.6 3 Nordeste 16 Nordeste 0 -- -- 77
2019-10-22 19:00:00 13.2 4 Nordeste 17 Nordeste 0 -- -- 67
2019-10-22 18:00:00 15.9 9 Nordeste 25 Nordeste 0 -- -- 57
2019-10-22 17:00:00 15.6 6 Nordeste 20 Este 0 -- -- 59
2019-10-22 16:00:00 16.8 8 Nordeste 24 Nordeste 0 -- -- 54
2019-10-22 15:00:00 16.9 6 Nordeste 17 Nordeste 0 -- -- 59
2019-10-22 14:00:00 15.8 4 Nordeste 16 Norte 0 -- -- 63
2019-10-22 13:00:00 13.2 4 Noroeste 13 Noroeste 0 -- -- 69
2019-10-22 12:00:00 14.8 3 Sudoeste 9 Sudeste 0 -- -- 60
2019-10-22 11:00:00 12.7 0 Calma 5 Noroeste 0 -- -- 72
2019-10-22 10:00:00 8 0 Calma 15 Sudeste 0 -- -- 81
2019-10-22 09:00:00 6.1 4 Sudeste 12 Sudeste 0 -- -- 89
2019-10-22 08:00:00 6 6 Sudeste 15 Sudeste 0 -- -- 89
2019-10-22 07:00:00 5.9 8 Sudeste 15 Sudeste 0 -- -- 91
2019-10-22 06:00:00 5.6 7 Sudeste 12 Sudeste 0 -- -- 95
2019-10-22 05:00:00 5.4 5 Este 17 Este 0 -- -- 94
2019-10-22 04:00:00 6 6 Sudeste 14 Este 0 -- -- 91
2019-10-22 03:00:00 6.5 9 Sudeste 15 Sudeste 0 -- -- 92
2019-10-22 02:00:00 6.4 5 Sudeste 13 Sudeste 0 -- -- 93
2019-10-22 01:00:00 6.4 5 Sudeste 9 Sudeste 0 -- -- 96
2019-10-22 00:00:00 6.9 0 Calma 8 Este 0 -- -- 91
2019-10-21 23:00:00 7.5 5 Sudeste 8 Sudeste 0 -- -- 91
2019-10-21 22:00:00 7.7 0 Calma 6 Nordeste 0 -- -- 93
2019-10-21 21:00:00 8.9 2 Este 6 Este 0 -- -- 88
2019-10-21 20:00:00 9.6 0 Calma 4 Sudeste 0 -- -- 89
2019-10-21 19:00:00 11 0 Calma 5 Nordeste 0 -- -- 84
2019-10-21 18:00:00 12 3 Nordeste 19 Noroeste 0 -- -- 75
2019-10-21 17:00:00 14.9 12 Noroeste 18 Noroeste 0 -- -- 68
2019-10-21 16:00:00 14.1 6 Norte 14 Noroeste 0 -- -- 67
2019-10-21 15:00:00 12.9 7 Noroeste 14 Noroeste 0 -- -- 73
2019-10-21 14:00:00 13.1 3 Norte 8 Nordeste 0 -- -- 74
2019-10-21 13:00:00 12 5 Sudeste 13 Sudeste 0 -- -- 82
2019-10-21 12:00:00 12 5 Este 10 Este 0 -- -- 83
2019-10-21 11:00:00 9 3 Sudeste 6 Este 0 -- -- 98
2019-10-21 10:00:00 7.6 3 Sudeste 6 Sudeste 0 -- -- 99
2019-10-21 09:00:00 7.1 2 Este 5 Este 0 -- -- 100
2019-10-21 08:00:00 6.5 2 Nordeste 8 Sudeste 0 -- -- 100
2019-10-21 07:00:00 6.1 3 Este 9 Nordeste 0 -- -- 100
2019-10-21 06:00:00 8 0 Calma 7 Nordeste 0 -- -- 99
2019-10-21 05:00:00 7.5 2 Nordeste 5 Este 0 -- -- 100
2019-10-21 04:00:00 8 0 Calma 6 Este 0 -- -- 99
2019-10-21 03:00:00 7.5 0 Calma 3 Nordeste 0.2 -- -- 100
2019-10-21 02:00:00 7.7 0 Calma 4 Este 0 -- -- 100
2019-10-21 01:00:00 7.8 0 Calma 4 Nordeste 0 -- -- 99
2019-10-21 00:00:00 8.3 0 Calma 4 Nordeste 0 -- -- 99
2019-10-20 23:00:00 8.6 0 Calma 3 Nordeste 0 -- -- 98
2019-10-20 22:00:00 9.5 0 Calma 3 Noroeste 0 -- -- 98
2019-10-20 21:00:00 9.5 0 Calma 3 Este 0 -- -- 98
2019-10-20 20:00:00 10 0 Calma 5 Norte 0.4 -- -- 96
2019-10-20 19:00:00 11.4 0 Calma 8 Noroeste 0 -- -- 95
2019-10-20 18:00:00 11.1 0 Calma 11 Norte 0 -- -- 95
2019-10-20 17:00:00 10.5 5 Noroeste 15 Noroeste 3.2 -- -- 95
2019-10-20 16:00:00 12.5 9 Noroeste 17 Noroeste 0 -- -- 85
2019-10-20 15:00:00 11.8 3 Noroeste 14 Noroeste 0.8 -- -- 91
2019-10-20 14:00:00 11.4 2 Noroeste 13 Noroeste 1.2 -- -- 91
2019-10-20 13:00:00 12.5 6 Noroeste 13 Noroeste 0 -- -- 86
2019-10-20 12:00:00 11.4 3 Noroeste 10 Noroeste 0.8 -- -- 85
2019-10-20 11:00:00 12.9 2 Noroeste 5 Oeste 0 -- -- 92
2019-10-20 10:00:00 8.8 0 Calma 3 Oeste 0.6 -- -- 99
2019-10-20 09:00:00 8 2 Norte 9 Norte 0.2 -- -- 100
2019-10-20 08:00:00 7.6 0 Calma 3 Noroeste 0 -- -- 100
2019-10-20 07:00:00 8 0 Calma 8 Noroeste 0 -- -- 100
2019-10-20 06:00:00 8 0 Calma 5 Noroeste 0 -- -- 100
2019-10-20 05:00:00 8.1 0 Calma 5 Noroeste 0 -- -- 100
2019-10-20 04:00:00 8 0 Calma 3 Noroeste 0.2 -- -- 100
2019-10-20 03:00:00 7.5 0 Calma 5 Noroeste 0.2 -- -- 100
2019-10-20 02:00:00 7.7 3 Noroeste 8 Oeste 0 -- -- 100
2019-10-20 01:00:00 8.4 3 Noroeste 6 Noroeste 0.2 -- -- 100
2019-10-20 00:00:00 8.6 0 Calma 4 Noroeste 0 -- -- 100
2019-10-19 23:00:00 8.9 3 Noroeste 18 Noroeste 0.2 -- -- 99
2019-10-19 22:00:00 9.2 4 Noroeste 10 Noroeste 0.6 -- -- 99
2019-10-19 21:00:00 9.2 0 Calma 16 Noroeste 2.8 -- -- 99
2019-10-19 20:00:00 9.4 3 Noroeste 11 Noroeste 1 -- -- 99
2019-10-19 19:00:00 9.7 4 Noroeste 12 Noroeste 2.2 -- -- 98
2019-10-19 18:00:00 10.3 3 Norte 17 Nordeste 1.2 -- -- 97
2019-10-19 17:00:00 11.3 4 Nordeste 11 Norte 0 -- -- 95
2019-10-19 16:00:00 12.4 4 Nordeste 12 Sudeste 0.2 -- -- 93
2019-10-19 15:00:00 11.6 6 Sudeste 20 Sudeste 0.4 -- -- 92
2019-10-19 14:00:00 10.1 12 Sudeste 22 Sudeste 1 -- -- 97
2019-10-19 13:00:00 10.4 8 Sudeste 18 Sudeste 3.2 -- -- 99
2019-10-19 12:00:00 10.7 4 Sudeste 6 Este 3 -- -- 99
2019-10-19 11:00:00 10.6 2 Nordeste 6 Este 4 -- -- 99
2019-10-19 10:00:00 10.5 0 Calma 3 Sudeste 3.4 -- -- 99
2019-10-19 09:00:00 10.6 0 Calma 8 Sudeste 2.2 -- -- 99
2019-10-19 08:00:00 10.7 5 Sudeste 11 Sudeste 0.8 -- -- 99
2019-10-19 07:00:00 10.7 3 Sudeste 5 Sudeste 0.8 -- -- 99
2019-10-19 06:00:00 10.6 2 Oeste 8 Noroeste 0.6 -- -- 99
2019-10-19 05:00:00 11.1 2 Sudoeste 8 Noroeste 0 -- -- 99
2019-10-19 04:00:00 11.6 0 Calma 6 Norte 1 -- -- 99
2019-10-19 03:00:00 11.8 4 Noroeste 9 Noroeste 3.2 -- -- 99
2019-10-19 02:00:00 12 3 Noroeste 6 Noroeste 3.2 -- -- 98
2019-10-19 01:00:00 12.1 0 Calma 8 Nordeste 3.8 -- -- 98
2019-10-19 00:00:00 12.2 3 Oeste 25 Sudoeste 2.6 -- -- 97
2019-10-18 23:00:00 12.3 9 Sur 26 Sudoeste 2.2 -- -- 96
2019-10-18 22:00:00 12 4 Sudoeste 20 Oeste 1.8 -- -- 97
2019-10-18 21:00:00 12.1 10 Sudoeste 29 Sur 1.4 -- -- 95
2019-10-18 20:00:00 12.3 13 Sudoeste 29 Sudoeste 0 -- -- 93
2019-10-18 19:00:00 13.5 9 Sudoeste 25 Oeste 0 -- -- 86
2019-10-18 18:00:00 14.4 7 Sudoeste 27 Oeste 0 -- -- 84
2019-10-18 17:00:00 15.7 8 Sudoeste 24 Sur 0 -- -- 76
2019-10-18 16:00:00 15 11 Sudoeste 26 Sudoeste 0 -- -- 78
2019-10-18 15:00:00 15.2 10 Sudoeste 26 Oeste 0 -- -- 79
2019-10-18 14:00:00 13.7 7 Sudoeste 19 Oeste 0 -- -- 86
2019-10-18 13:00:00 13.3 8 Sudoeste 19 Sur 0 -- -- 89
2019-10-18 12:00:00 13.5 7 Sudoeste 19 Oeste 0 -- -- 84
2019-10-18 11:00:00 13 8 Sudoeste 19 Sudoeste 0 -- -- 86
2019-10-18 10:00:00 12.3 6 Sur 11 Sudoeste 0 -- -- 89
2019-10-18 09:00:00 11.4 3 Sur 8 Sudoeste 0 -- -- 92
2019-10-18 08:00:00 11.3 4 Sudoeste 11 Sudoeste 0.2 -- -- 92
2019-10-18 07:00:00 11.4 3 Oeste 11 Sudoeste 0 -- -- 90
2019-10-18 06:00:00 11.2 3 Sudoeste 14 Sudoeste 0 -- -- 89
2019-10-18 05:00:00 11 5 Noroeste 13 Oeste 0 -- -- 91
2019-10-18 04:00:00 11.1 4 Oeste 14 Oeste 0 -- -- 93
2019-10-18 03:00:00 11 4 Oeste 18 Noroeste 0 -- -- 95
2019-10-18 02:00:00 11.6 5 Sudoeste 15 Sur 0 -- -- 89
2019-10-18 01:00:00 11.2 5 Sudoeste 14 Oeste 0 -- -- 91
2019-10-18 00:00:00 10.7 2 Sudoeste 12 Oeste 0 -- -- 94